createdAt,value
2023-02-11T00:01:30.589Z,65.95
2023-02-11T00:03:58.695Z,65.88
2023-02-11T00:06:28.262Z,65.78
2023-02-11T00:08:56.849Z,65.76
2023-02-11T00:11:30.511Z,65.83
2023-02-11T00:14:05.326Z,65.71
2023-02-11T00:16:32.507Z,65.73
2023-02-11T00:19:01.380Z,65.53
2023-02-11T00:21:28.849Z,65.57
2023-02-11T00:23:57.241Z,65.55
2023-02-11T00:26:31.949Z,65.73
2023-02-11T00:28:59.222Z,65.59
2023-02-11T00:31:27.237Z,65.73
2023-02-11T00:33:54.520Z,65.71
2023-02-11T00:36:27.391Z,65.98
2023-02-11T00:38:55.597Z,66.08
2023-02-11T00:41:23.597Z,65.98
2023-02-11T00:43:51.036Z,66.14
2023-02-11T00:46:19.868Z,66.07
2023-02-11T00:48:46.807Z,66.08
2023-02-11T00:51:13.870Z,66.08
2023-02-11T00:53:41.878Z,65.96
2023-02-11T00:56:09.150Z,66.25
2023-02-11T00:58:37.350Z,65.98
2023-02-11T01:01:04.989Z,65.95
2023-02-11T01:03:32.537Z,66.18
2023-02-11T01:05:59.448Z,66.37
2023-02-11T01:08:26.939Z,66.16
2023-02-11T01:10:59.999Z,66.36
2023-02-11T01:13:28.349Z,66.62
2023-02-11T01:15:56.595Z,66.42
2023-02-11T01:18:24.222Z,66.53
2023-02-11T01:20:55.144Z,66.61
2023-02-11T01:23:22.188Z,66.65
2023-02-11T01:25:49.852Z,66.64
2023-02-11T01:28:29.488Z,66.72
2023-02-11T01:30:56.892Z,66.69
2023-02-11T01:33:24.612Z,67.09
2023-02-11T01:35:52.249Z,67.00
2023-02-11T01:38:25.116Z,66.94
2023-02-11T01:40:56.056Z,66.89
2023-02-11T01:43:24.682Z,67.03
2023-02-11T01:45:58.613Z,67.05
2023-02-11T01:48:32.898Z,67.36
2023-02-11T01:51:23.007Z,67.30
2023-02-11T01:54:09.837Z,67.44
2023-02-11T01:57:01.660Z,67.26
2023-02-11T01:59:38.680Z,67.36
2023-02-11T02:02:11.555Z,67.23
2023-02-11T02:05:03.261Z,67.03
2023-02-11T02:08:13.986Z,66.58
2023-02-11T02:10:45.331Z,66.37
2023-02-11T02:13:12.890Z,66.35
2023-02-11T02:15:46.572Z,66.53
2023-02-11T02:18:43.658Z,66.79
2023-02-11T02:21:48.169Z,66.85
2023-02-11T02:24:31.292Z,67.37
2023-02-11T02:27:27.593Z,67.14
2023-02-11T02:30:25.218Z,67.23
2023-02-11T02:33:41.305Z,67.02
2023-02-11T02:36:37.274Z,67.11
2023-02-11T02:39:12.032Z,66.92
2023-02-11T02:41:40.096Z,67.06
2023-02-11T02:44:08.406Z,66.71
2023-02-11T02:46:35.667Z,67.56
2023-02-11T02:49:02.660Z,67.82
2023-02-11T02:52:06.173Z,68.04
2023-02-11T02:55:12.425Z,67.85
2023-02-11T02:58:18.588Z,67.93
2023-02-11T03:01:20.237Z,68.14
2023-02-11T03:03:59.507Z,68.04
2023-02-11T03:06:55.464Z,68.26
2023-02-11T03:09:31.443Z,69.07
2023-02-11T03:12:00.186Z,68.81
2023-02-11T03:14:28.649Z,68.81
2023-02-11T03:16:57.849Z,68.84
2023-02-11T03:19:39.581Z,68.56
2023-02-11T03:22:15.406Z,68.53
2023-02-11T03:24:42.613Z,68.94
2023-02-11T03:27:25.016Z,69.05
2023-02-11T03:30:07.201Z,68.85
2023-02-11T03:32:58.294Z,68.93
2023-02-11T03:35:33.387Z,68.99
2023-02-11T03:38:04.516Z,68.69
2023-02-11T03:40:40.372Z,68.73
2023-02-11T03:43:27.132Z,68.81
2023-02-11T03:45:56.765Z,69.45
2023-02-11T03:48:33.647Z,69.96
2023-02-11T03:51:05.833Z,69.87
2023-02-11T03:53:32.932Z,69.86
2023-02-11T03:56:05.730Z,69.67
2023-02-11T03:58:32.581Z,69.77
2023-02-11T04:00:59.432Z,69.85
2023-02-11T04:03:26.314Z,69.36
2023-02-11T04:05:54.080Z,69.44
2023-02-11T04:08:21.255Z,69.38
2023-02-11T04:10:48.075Z,69.51
2023-02-11T04:13:15.128Z,69.34
2023-02-11T04:15:41.980Z,68.94
2023-02-11T04:18:08.798Z,68.74
2023-02-11T04:20:35.639Z,68.86
2023-02-11T04:23:02.477Z,68.86
2023-02-11T04:25:29.291Z,69.02
2023-02-11T04:27:56.226Z,69.08
2023-02-11T04:30:23.154Z,68.58
2023-02-11T04:32:49.991Z,68.34
2023-02-11T04:35:16.852Z,68.51
2023-02-11T04:37:43.825Z,68.10
2023-02-11T04:40:11.130Z,68.12
2023-02-11T04:42:38.001Z,68.16
2023-02-11T04:45:05.228Z,68.06
2023-02-11T04:47:32.037Z,68.18
2023-02-11T04:49:58.888Z,67.92
2023-02-11T04:52:25.804Z,67.97
2023-02-11T04:54:52.630Z,68.23
2023-02-11T04:57:19.429Z,68.18
2023-02-11T04:59:46.224Z,67.84
2023-02-11T05:02:13.102Z,67.40
2023-02-11T05:04:39.939Z,67.58
2023-02-11T05:07:06.933Z,67.75
2023-02-11T05:09:33.728Z,67.79
2023-02-11T05:12:00.562Z,68.50
2023-02-11T05:14:27.394Z,68.68
2023-02-11T05:16:54.386Z,68.88
2023-02-11T05:19:21.274Z,69.08
2023-02-11T05:22:01.747Z,68.91
2023-02-11T05:24:29.576Z,68.85
2023-02-11T05:26:56.444Z,68.52
2023-02-11T05:29:23.363Z,68.69
2023-02-11T05:31:50.217Z,68.55
2023-02-11T05:34:17.010Z,68.14
2023-02-11T05:36:43.916Z,68.36
2023-02-11T05:39:10.746Z,68.51
2023-02-11T05:41:38.244Z,68.77
2023-02-11T05:44:05.129Z,68.52
2023-02-11T05:46:32.110Z,68.14
2023-02-11T05:48:59.026Z,68.19
2023-02-11T05:51:25.955Z,68.00
2023-02-11T05:53:53.410Z,68.10
2023-02-11T05:56:20.321Z,67.93
2023-02-11T05:58:47.263Z,67.63
2023-02-11T06:01:14.174Z,67.75
2023-02-11T06:03:41.094Z,68.25
2023-02-11T06:06:12.754Z,67.95
2023-02-11T06:08:40.000Z,67.83
2023-02-11T06:11:06.854Z,67.65
2023-02-11T06:13:33.688Z,67.60
2023-02-11T06:16:02.345Z,67.74
2023-02-11T06:18:29.673Z,68.00
2023-02-11T06:20:56.589Z,67.90
2023-02-11T06:23:23.468Z,68.72
2023-02-11T06:25:51.795Z,67.69
2023-02-11T06:28:19.836Z,67.56
2023-02-11T06:30:46.749Z,67.01
2023-02-11T06:33:13.585Z,66.75
2023-02-11T06:35:40.497Z,66.80
2023-02-11T06:38:07.318Z,66.36
2023-02-11T06:40:34.270Z,66.97
2023-02-11T06:43:01.111Z,67.34
2023-02-11T06:45:27.960Z,67.24
2023-02-11T06:47:54.901Z,67.39
2023-02-11T06:50:21.954Z,66.93
2023-02-11T06:52:48.757Z,67.14
2023-02-11T06:55:15.718Z,67.45
2023-02-11T06:57:42.641Z,66.81
2023-02-11T07:00:10.455Z,66.86
2023-02-11T07:02:37.489Z,66.50
2023-02-11T07:05:07.221Z,66.14
2023-02-11T07:07:34.516Z,65.86
2023-02-11T07:10:03.145Z,65.81
2023-02-11T07:12:31.087Z,65.62
2023-02-11T07:14:58.308Z,65.52
2023-02-11T07:17:25.170Z,65.57
2023-02-11T07:19:51.973Z,65.47
2023-02-11T07:22:18.810Z,65.74
2023-02-11T07:24:45.860Z,65.88
2023-02-11T07:27:12.923Z,65.71
2023-02-11T07:29:39.867Z,65.56
2023-02-11T07:32:06.890Z,65.30
2023-02-11T07:34:34.120Z,64.54
2023-02-11T07:37:00.973Z,64.00
2023-02-11T07:39:27.768Z,63.85
2023-02-11T07:41:55.797Z,63.81
2023-02-11T07:44:23.099Z,63.91
2023-02-11T07:46:50.026Z,64.02
2023-02-11T07:49:17.756Z,63.59
2023-02-11T07:51:44.666Z,63.59
2023-02-11T07:54:12.239Z,64.17
2023-02-11T07:56:39.120Z,63.49
2023-02-11T07:59:05.915Z,63.04
2023-02-11T08:01:33.209Z,62.80
2023-02-11T08:04:01.996Z,62.12
2023-02-11T08:06:32.197Z,61.96
2023-02-11T08:09:07.130Z,62.64
2023-02-11T08:11:34.054Z,62.23
2023-02-11T08:14:00.946Z,62.66
2023-02-11T08:16:31.608Z,61.75
2023-02-11T08:19:02.064Z,61.05
2023-02-11T08:21:29.280Z,60.92
2023-02-11T08:23:56.680Z,61.59
2023-02-11T08:26:28.646Z,61.98
2023-02-11T08:28:57.949Z,61.45
2023-02-11T08:31:33.657Z,61.28
2023-02-11T08:34:02.327Z,61.46
2023-02-11T08:36:34.188Z,61.66
2023-02-11T08:39:18.045Z,60.96
2023-02-11T08:41:54.018Z,61.00
2023-02-11T08:44:22.137Z,60.53
2023-02-11T08:46:50.288Z,59.36
2023-02-11T08:49:17.384Z,58.97
2023-02-11T08:51:45.201Z,59.29
2023-02-11T08:54:12.964Z,61.04
2023-02-11T08:56:40.160Z,60.78
2023-02-11T08:59:09.086Z,60.75
2023-02-11T09:01:36.076Z,60.77
2023-02-11T09:04:02.981Z,59.79
2023-02-11T09:06:30.165Z,58.16
2023-02-11T09:08:58.442Z,57.55
2023-02-11T09:11:31.128Z,56.93
2023-02-11T09:13:59.119Z,56.97
2023-02-11T09:16:29.154Z,55.83
2023-02-11T09:19:01.204Z,55.32
2023-02-11T09:21:28.539Z,54.43
2023-02-11T09:23:56.158Z,54.36
2023-02-11T09:26:28.330Z,53.38
2023-02-11T09:28:55.607Z,53.69
2023-02-11T09:31:25.416Z,53.79
2023-02-11T09:33:56.570Z,53.79
2023-02-11T09:36:33.706Z,54.13
2023-02-11T09:39:02.550Z,53.72
2023-02-11T09:41:38.168Z,51.89
2023-02-11T09:44:09.108Z,51.42
2023-02-11T09:46:41.710Z,50.77
2023-02-11T09:49:19.581Z,47.50
2023-02-11T09:52:03.760Z,48.97
2023-02-11T09:54:44.877Z,49.37
2023-02-11T09:57:26.615Z,49.73
2023-02-11T09:59:56.540Z,50.66
2023-02-11T10:02:45.414Z,49.63
2023-02-11T10:05:25.455Z,48.38
2023-02-11T10:08:09.830Z,48.01
2023-02-11T10:11:22.650Z,46.31
2023-02-11T10:14:43.454Z,44.50
2023-02-11T10:17:26.695Z,43.26
2023-02-11T10:20:24.870Z,41.45
2023-02-11T10:23:00.990Z,39.73
2023-02-11T10:25:45.475Z,40.57
2023-02-11T10:28:35.213Z,40.49
2023-02-11T10:31:19.792Z,41.41
2023-02-11T10:33:59.163Z,42.34
2023-02-11T10:36:38.434Z,42.57
2023-02-11T10:39:25.552Z,42.19
2023-02-11T10:42:02.735Z,42.72
2023-02-11T10:44:34.322Z,43.39
2023-02-11T10:47:16.034Z,44.03
2023-02-11T10:49:45.441Z,45.59
2023-02-11T10:52:24.078Z,45.34
2023-02-11T10:55:21.371Z,44.90
2023-02-11T10:58:01.518Z,43.26
2023-02-11T11:00:42.757Z,41.82
2023-02-11T11:03:29.163Z,41.36
2023-02-11T11:06:00.881Z,41.42
2023-02-11T11:08:49.054Z,42.69
2023-02-11T11:11:27.129Z,42.53
2023-02-11T11:13:53.918Z,42.84
2023-02-11T11:16:25.806Z,43.80
2023-02-11T11:19:15.185Z,42.64
2023-02-11T11:21:51.858Z,42.62
2023-02-11T11:24:29.404Z,42.38
2023-02-11T11:27:01.384Z,41.67
2023-02-11T11:29:47.197Z,41.76
2023-02-11T11:32:26.712Z,42.32
2023-02-11T11:34:57.244Z,42.65
2023-02-11T11:37:28.441Z,42.45
2023-02-11T11:40:09.687Z,41.78
2023-02-11T11:42:39.740Z,43.25
2023-02-11T11:45:15.329Z,43.09
2023-02-11T11:47:53.022Z,43.00
2023-02-11T11:50:45.410Z,42.37
2023-02-11T11:53:24.737Z,42.51
2023-02-11T11:56:18.802Z,43.15
2023-02-11T11:58:45.825Z,42.48
2023-02-11T12:01:44.120Z,42.25
2023-02-11T12:04:38.347Z,42.47
2023-02-11T12:07:57.124Z,41.83
2023-02-11T12:10:40.278Z,41.11
2023-02-11T12:13:46.307Z,41.25
2023-02-11T12:16:19.509Z,41.49
2023-02-11T12:19:21.761Z,40.02
2023-02-11T12:22:03.320Z,40.26
2023-02-11T12:25:00.285Z,40.77
2023-02-11T12:27:50.699Z,41.83
2023-02-11T12:31:04.235Z,41.09
2023-02-11T12:33:49.839Z,40.69
2023-02-11T12:36:57.080Z,40.67
2023-02-11T12:39:51.634Z,39.66
2023-02-11T12:43:03.724Z,36.21
2023-02-11T12:46:03.924Z,33.39
2023-02-11T12:49:04.217Z,31.82
2023-02-11T12:51:50.109Z,30.09
2023-02-11T12:54:30.601Z,28.45
2023-02-11T12:57:11.249Z,29.52
2023-02-11T13:00:04.147Z,29.95
2023-02-11T13:02:52.192Z,28.81
2023-02-11T13:05:37.504Z,28.19
2023-02-11T13:08:30.838Z,28.48
2023-02-11T13:11:14.389Z,29.07
2023-02-11T13:14:02.397Z,31.01
2023-02-11T13:16:41.566Z,31.08
2023-02-11T13:19:34.194Z,30.46
2023-02-11T13:22:11.702Z,30.57
2023-02-11T13:25:25.589Z,31.01
2023-02-11T13:28:11.071Z,31.70
2023-02-11T13:30:46.817Z,32.25
2023-02-11T13:33:19.622Z,33.46
2023-02-11T13:36:08.894Z,34.63
2023-02-11T13:38:36.757Z,36.11
2023-02-11T13:41:39.789Z,36.78
2023-02-11T13:44:26.633Z,35.90
2023-02-11T13:47:01.450Z,35.62
2023-02-11T13:49:35.958Z,37.45
2023-02-11T13:52:07.372Z,36.95
2023-02-11T13:54:38.436Z,35.90
2023-02-11T13:57:20.631Z,37.37
2023-02-11T13:59:53.649Z,39.43
2023-02-11T14:03:31.192Z,40.56
2023-02-11T14:06:45.191Z,40.35
2023-02-11T14:09:17.252Z,41.77
2023-02-11T14:11:46.112Z,42.11
2023-02-11T14:14:28.460Z,42.36
2023-02-11T14:16:58.539Z,43.03
2023-02-11T14:19:38.337Z,43.47
2023-02-11T14:22:13.419Z,43.55
2023-02-11T14:25:00.973Z,44.09
2023-02-11T14:27:48.834Z,45.13
2023-02-11T14:30:46.659Z,45.13
2023-02-11T14:33:57.975Z,45.50
2023-02-11T14:36:53.284Z,44.62
2023-02-11T14:40:17.755Z,44.70
2023-02-11T14:42:45.268Z,45.36
2023-02-11T14:45:25.508Z,45.87
2023-02-11T14:48:08.108Z,46.37
2023-02-11T14:50:53.442Z,46.43
2023-02-11T14:53:25.606Z,46.26
2023-02-11T14:55:54.893Z,46.84
2023-02-11T14:58:34.340Z,46.31
2023-02-11T15:01:21.070Z,46.66
2023-02-11T15:03:49.730Z,46.99
2023-02-11T15:06:21.598Z,47.32
2023-02-11T15:09:00.967Z,47.65
2023-02-11T15:11:33.334Z,47.20
2023-02-11T15:14:09.973Z,46.71
2023-02-11T15:16:43.244Z,46.85
2023-02-11T15:19:25.817Z,46.66
2023-02-11T15:21:53.636Z,47.13
2023-02-11T15:24:26.425Z,47.32
2023-02-11T15:27:00.686Z,47.89
2023-02-11T15:29:41.349Z,47.60
2023-02-11T15:32:16.917Z,47.67
2023-02-11T15:34:45.935Z,48.04
2023-02-11T15:37:24.944Z,48.07
2023-02-11T15:39:53.493Z,47.68
2023-02-11T15:42:40.824Z,48.03
2023-02-11T15:45:14.036Z,49.33
2023-02-11T15:47:57.036Z,49.55
2023-02-11T15:50:31.554Z,49.71
2023-02-11T15:53:04.704Z,50.16
2023-02-11T15:55:33.038Z,50.43
2023-02-11T15:58:01.707Z,50.53
2023-02-11T16:00:37.226Z,51.17
2023-02-11T16:03:05.011Z,51.07
2023-02-11T16:05:36.138Z,50.91
2023-02-11T16:08:26.248Z,51.39
2023-02-11T16:11:08.434Z,50.83
2023-02-11T16:13:47.289Z,51.41
2023-02-11T16:16:25.166Z,52.46
2023-02-11T16:19:04.856Z,52.57
2023-02-11T16:21:38.917Z,52.85
2023-02-11T16:24:08.365Z,53.44
2023-02-11T16:26:42.958Z,53.87
2023-02-11T16:29:25.956Z,54.60
2023-02-11T16:32:04.402Z,54.93
2023-02-11T16:34:31.297Z,54.74
2023-02-11T16:36:58.075Z,55.29
2023-02-11T16:39:24.936Z,55.22
2023-02-11T16:41:52.205Z,55.41
2023-02-11T16:44:19.630Z,55.80
2023-02-11T16:46:46.605Z,56.13
2023-02-11T16:49:38.224Z,56.40
2023-02-11T16:52:13.646Z,56.81
2023-02-11T16:54:40.442Z,56.51
2023-02-11T16:57:30.036Z,56.96
2023-02-11T16:59:58.991Z,57.26
2023-02-11T17:02:30.563Z,57.69
2023-02-11T17:05:07.308Z,57.37
2023-02-11T17:07:34.427Z,57.10
2023-02-11T17:10:01.325Z,57.37
2023-02-11T17:12:28.116Z,57.72
2023-02-11T17:14:55.096Z,57.79
2023-02-11T17:17:24.468Z,57.77
2023-02-11T17:19:51.404Z,57.88
2023-02-11T17:22:18.638Z,58.18
2023-02-11T17:24:45.533Z,58.49
2023-02-11T17:27:12.912Z,58.52
2023-02-11T17:29:39.803Z,58.25
2023-02-11T17:32:06.918Z,58.62
2023-02-11T17:34:33.812Z,58.80
2023-02-11T17:37:03.008Z,58.85
2023-02-11T17:39:29.920Z,58.96
2023-02-11T17:41:56.699Z,58.28
2023-02-11T17:44:23.540Z,58.40
2023-02-11T17:46:50.337Z,58.51
2023-02-11T17:49:17.168Z,58.33
2023-02-11T17:51:44.030Z,58.80
2023-02-11T17:54:17.202Z,59.22
2023-02-11T17:56:49.301Z,59.07
2023-02-11T17:59:17.209Z,58.78
2023-02-11T18:01:44.385Z,58.74
2023-02-11T18:04:15.885Z,59.09
2023-02-11T18:06:43.308Z,59.03
2023-02-11T18:09:11.074Z,59.12
2023-02-11T18:11:39.840Z,59.14
2023-02-11T18:14:08.358Z,58.82
2023-02-11T18:16:38.710Z,58.78
2023-02-11T18:19:07.448Z,58.62
2023-02-11T18:21:34.299Z,58.70
2023-02-11T18:24:05.962Z,58.02
2023-02-11T18:26:33.668Z,57.99
2023-02-11T18:29:00.577Z,57.80
2023-02-11T18:31:27.879Z,57.85
2023-02-11T18:33:54.716Z,58.19
2023-02-11T18:36:22.538Z,58.45
2023-02-11T18:38:49.626Z,58.33
2023-02-11T18:41:16.475Z,58.20
2023-02-11T18:43:43.472Z,58.20
2023-02-11T18:46:13.946Z,58.29
2023-02-11T18:48:41.422Z,58.37
2023-02-11T18:51:18.387Z,58.30
2023-02-11T18:53:45.626Z,58.37
2023-02-11T18:56:20.492Z,58.38
2023-02-11T18:58:48.096Z,58.59
2023-02-11T19:01:20.848Z,59.00
2023-02-11T19:03:48.344Z,58.89
2023-02-11T19:06:19.681Z,58.66
2023-02-11T19:08:47.166Z,58.89
2023-02-11T19:11:18.652Z,58.72
2023-02-11T19:13:49.535Z,58.63
2023-02-11T19:16:19.692Z,58.50
2023-02-11T19:18:46.615Z,58.48
2023-02-11T19:21:13.562Z,58.27
2023-02-11T19:23:40.436Z,58.59
2023-02-11T19:26:07.329Z,58.37
2023-02-11T19:28:36.887Z,57.92
2023-02-11T19:31:10.319Z,57.83
2023-02-11T19:33:37.302Z,57.99
2023-02-11T19:36:08.092Z,58.12
2023-02-11T19:38:35.881Z,58.21
2023-02-11T19:41:02.740Z,58.17
2023-02-11T19:43:29.770Z,57.71
2023-02-11T19:45:57.515Z,58.05
2023-02-11T19:48:25.377Z,58.19
2023-02-11T19:50:52.290Z,58.07
2023-02-11T19:53:19.331Z,58.29
2023-02-11T19:55:46.263Z,58.83
2023-02-11T19:58:13.785Z,58.63
2023-02-11T20:00:40.606Z,58.70
2023-02-11T20:03:08.030Z,58.36
2023-02-11T20:05:38.900Z,58.86
2023-02-11T20:08:05.696Z,58.91
2023-02-11T20:10:32.482Z,58.66
2023-02-11T20:12:59.338Z,58.76
2023-02-11T20:15:26.346Z,59.01
2023-02-11T20:17:53.216Z,59.10
2023-02-11T20:20:20.245Z,59.40
2023-02-11T20:22:47.073Z,59.11
2023-02-11T20:25:13.899Z,59.32
2023-02-11T20:27:41.668Z,59.45
2023-02-11T20:30:09.724Z,59.48
2023-02-11T20:32:38.583Z,59.35
2023-02-11T20:35:07.805Z,59.80
2023-02-11T20:37:34.972Z,59.59
2023-02-11T20:40:01.825Z,59.68
2023-02-11T20:42:28.734Z,59.74
2023-02-11T20:44:55.597Z,59.81
2023-02-11T20:47:22.776Z,59.99
2023-02-11T20:49:49.742Z,59.75
2023-02-11T20:52:16.840Z,60.11
2023-02-11T20:54:43.686Z,59.84
2023-02-11T20:57:10.554Z,59.43
2023-02-11T20:59:37.690Z,59.79
2023-02-11T21:02:04.680Z,59.29
2023-02-11T21:04:32.572Z,59.49
2023-02-11T21:07:02.185Z,59.54
2023-02-11T21:09:33.106Z,59.91
2023-02-11T21:12:00.833Z,59.99
2023-02-11T21:14:28.683Z,59.57
2023-02-11T21:16:55.731Z,59.70
2023-02-11T21:19:22.606Z,59.84
2023-02-11T21:21:49.521Z,59.84
2023-02-11T21:24:16.452Z,59.77
2023-02-11T21:26:43.440Z,59.66
2023-02-11T21:29:10.666Z,59.79
2023-02-11T21:31:38.185Z,59.80
2023-02-11T21:34:06.023Z,59.84
2023-02-11T21:36:33.275Z,59.95
2023-02-11T21:39:01.738Z,59.88
2023-02-11T21:41:28.601Z,60.59
2023-02-11T21:43:55.534Z,60.28
2023-02-11T21:46:23.128Z,60.37
2023-02-11T21:48:50.977Z,60.16
2023-02-11T21:51:25.287Z,60.31
2023-02-11T21:53:58.061Z,60.08
2023-02-11T21:56:28.689Z,59.90
2023-02-11T21:58:58.155Z,60.31
2023-02-11T22:01:29.374Z,60.17
2023-02-11T22:03:56.434Z,60.66
2023-02-11T22:06:27.786Z,60.79
2023-02-11T22:08:55.009Z,60.50
2023-02-11T22:11:21.994Z,60.71
2023-02-11T22:13:55.024Z,60.57
2023-02-11T22:16:22.160Z,60.53
2023-02-11T22:18:48.970Z,60.76
2023-02-11T22:21:19.603Z,60.82
2023-02-11T22:23:47.190Z,60.96
2023-02-11T22:26:20.634Z,60.57
2023-02-11T22:28:48.519Z,60.64
2023-02-11T22:31:29.102Z,60.37
2023-02-11T22:33:57.252Z,60.51
2023-02-11T22:36:37.972Z,60.54
2023-02-11T22:39:17.423Z,60.43
2023-02-11T22:41:46.934Z,60.57
2023-02-11T22:44:17.051Z,60.22
2023-02-11T22:46:44.435Z,60.69
2023-02-11T22:49:14.999Z,60.71
2023-02-11T22:51:42.106Z,60.72
2023-02-11T22:54:14.986Z,60.84
2023-02-11T22:56:42.600Z,61.21
2023-02-11T22:59:14.231Z,60.85
2023-02-11T23:01:42.387Z,60.62
2023-02-11T23:04:13.759Z,60.88
2023-02-11T23:06:40.583Z,60.53
2023-02-11T23:09:10.437Z,60.76
2023-02-11T23:11:37.345Z,60.83
2023-02-11T23:14:05.108Z,60.83
2023-02-11T23:16:34.651Z,61.01
2023-02-11T23:19:06.040Z,60.78
2023-02-11T23:21:35.757Z,60.92
2023-02-11T23:24:10.234Z,61.35
2023-02-11T23:26:40.394Z,61.27
2023-02-11T23:29:07.882Z,61.58
2023-02-11T23:31:39.748Z,61.50
2023-02-11T23:34:08.023Z,61.78
2023-02-11T23:36:35.091Z,61.75
2023-02-11T23:39:02.300Z,62.13
2023-02-11T23:41:29.147Z,62.01
2023-02-11T23:43:57.810Z,62.23
2023-02-11T23:46:26.463Z,62.11
2023-02-11T23:48:54.161Z,61.96
2023-02-11T23:51:22.214Z,61.97
2023-02-11T23:53:50.322Z,62.17
2023-02-11T23:56:23.948Z,62.26
2023-02-11T23:58:54.214Z,62.62
